Anchorage, AK (99516)

5:49 PM AKST on January 17, 2017 (GMT -0900)
MGAHA2 | | Change Station

Elev 2194 ft 61.10 °N, 149.69 °W | Updated 35 minutes ago

Partly Cloudy
Partly Cloudy
2.0 °F
Feels Like 2.0 °F
N
0.0
Wind Variable Wind from South
Gusts 1.0 mph

Today
High -- | Low -- °F
--% Chance of Precip.
Yesterday
High -- | Low -- °F
Precip. -- in
Pressure 29.33 in
Visibility 2.0 miles
Clouds Overcast 600 ft
Dew Point -1.0 °F
Humidity 85%
Rainfall 0.02 in
Snow Depth Not available.
9:51 AM 4:28 PM
Waning Gibbous, 67% visible
METAR PAMR 180153Z 35008KT 2SM BR OVC006 M17/M19 A2932 RMK AO2 SLP931 T11721189
Pressure 29.33 in
Visibility 2.0 miles
Clouds Overcast 600 ft
Dew Point -1.0 °F
Humidity 85%
Rainfall 0.02 in
Snow Depth Not available.
9:51 AM 4:28 PM
Waning Gibbous, 67% visible
METAR PAMR 180153Z 35008KT 2SM BR OVC006 M17/M19 A2932 RMK AO2 SLP931 T11721189

Get Your Daily Forecast Email!

Thanks for signing up!

Be on the lookout for a verification email in your inbox.

You'll start receiving the daily forecast at 8 AM.

×

10-Day Weather Forecast

Almanac

Astronomy

Jan. 17, 2017 Rise Set
Actual Time
Civil Twilight
Nautical Twilight
Astronomical Twilight
Moon
Length of Visible Light
Length of Day
Tomorrow will be .
, % of the Moon is Illuminated

Today's Extremes

State Highs State Lows

Community

WunderPhotos

Upload Photos

1,962,540 photos uploaded!

WunderBlog® & News

Nearby

Air Quality

  Air Quality AQ Index Pollutant
Not available.

Snow Depth

Station Depth Elevation

Earthquake Activity

City Distance Mag. Time & Date
Minimum magnitude displayed is 2.5.

Coastal Water Temperatures

Place Temperature

Stations

Nearby Weather Stations

Station Location Temp. Windchill Dew Point Humidity Wind Precip. Elev Updated Type
                   

Watches & Warnings

There are currently no watches in effect.